createdAt,value
2023-02-07T00:01:44.203Z,103142.52
2023-02-07T00:04:12.655Z,103131.94
2023-02-07T00:06:41.121Z,103128.61
2023-02-07T00:09:11.850Z,103124.60
2023-02-07T00:11:42.092Z,103124.90
2023-02-07T00:14:12.708Z,103120.71
2023-02-07T00:16:42.464Z,103120.33
2023-02-07T00:19:11.066Z,103120.12
2023-02-07T00:21:39.636Z,103114.36
2023-02-07T00:24:08.302Z,103115.11
2023-02-07T00:26:37.086Z,103113.08
2023-02-07T00:29:07.887Z,103105.98
2023-02-07T00:31:36.785Z,103099.44
2023-02-07T00:34:07.409Z,103100.38
2023-02-07T00:36:37.029Z,103097.50
2023-02-07T00:39:10.889Z,103096.36
2023-02-07T00:41:40.046Z,103093.16
2023-02-07T00:44:09.427Z,103098.76
2023-02-07T00:46:38.619Z,103095.20
2023-02-07T00:49:07.877Z,103100.28
2023-02-07T00:51:36.458Z,103096.79
2023-02-07T00:54:05.755Z,103089.15
2023-02-07T00:56:35.181Z,103084.67
2023-02-07T00:59:03.976Z,103087.92
2023-02-07T01:01:33.054Z,103085.52
2023-02-07T01:04:01.772Z,103084.52
2023-02-07T01:06:33.982Z,103079.77
2023-02-07T01:09:05.615Z,103085.63
2023-02-07T01:11:34.398Z,103092.92
2023-02-07T01:14:03.769Z,103095.59
2023-02-07T01:16:35.843Z,103096.52
2023-02-07T01:19:08.410Z,103097.07
2023-02-07T01:21:37.705Z,103100.68
2023-02-07T01:24:08.510Z,103098.81
2023-02-07T01:26:38.913Z,103093.65
2023-02-07T01:29:11.174Z,103089.48
2023-02-07T01:31:42.481Z,103090.83
2023-02-07T01:34:14.024Z,103090.30
2023-02-07T01:36:42.712Z,103096.05
2023-02-07T01:39:11.936Z,103094.95
2023-02-07T01:41:40.615Z,103095.02
2023-02-07T01:44:28.985Z,103101.63
2023-02-07T01:46:57.800Z,103095.96
2023-02-07T01:49:31.543Z,103096.80
2023-02-07T01:52:08.547Z,103095.71
2023-02-07T01:54:38.565Z,103093.48
2023-02-07T01:57:09.897Z,103096.52
2023-02-07T01:59:44.242Z,103101.27
2023-02-07T02:02:16.243Z,103103.07
2023-02-07T02:04:47.024Z,103096.30
2023-02-07T02:07:16.135Z,103097.91
2023-02-07T02:09:45.846Z,103098.52
2023-02-07T02:12:32.379Z,103091.16
2023-02-07T02:15:09.948Z,103089.70
2023-02-07T02:17:56.025Z,103097.52
2023-02-07T02:20:44.644Z,103097.92
2023-02-07T02:23:51.183Z,103094.66
2023-02-07T02:26:50.244Z,103091.36
2023-02-07T02:30:00.051Z,103092.85
2023-02-07T02:32:48.433Z,103089.92
2023-02-07T02:35:41.279Z,103092.81
2023-02-07T02:38:18.843Z,103093.66
2023-02-07T02:41:21.480Z,103092.62
2023-02-07T02:43:59.412Z,103086.89
2023-02-07T02:46:35.037Z,103082.50
2023-02-07T02:49:06.662Z,103084.21
2023-02-07T02:51:35.179Z,103084.43
2023-02-07T02:54:04.125Z,103086.90
2023-02-07T02:57:13.275Z,103087.71
2023-02-07T02:59:56.243Z,103083.16
2023-02-07T03:02:51.370Z,103080.49
2023-02-07T03:05:46.511Z,103076.61
2023-02-07T03:08:37.410Z,103076.96
2023-02-07T03:11:08.992Z,103079.66
2023-02-07T03:13:59.398Z,103080.14
2023-02-07T03:16:56.656Z,103073.95
2023-02-07T03:19:32.796Z,103075.38
2023-02-07T03:22:10.929Z,103075.94
2023-02-07T03:24:45.940Z,103072.64
2023-02-07T03:27:18.993Z,103076.81
2023-02-07T03:29:50.839Z,103075.61
2023-02-07T03:32:20.976Z,103072.62
2023-02-07T03:34:58.396Z,103076.15
2023-02-07T03:37:34.163Z,103074.63
2023-02-07T03:40:05.703Z,103077.13
2023-02-07T03:43:03.355Z,103074.43
2023-02-07T03:45:32.691Z,103075.66
2023-02-07T03:48:01.416Z,103072.86
2023-02-07T03:50:29.940Z,103081.37
2023-02-07T03:52:58.497Z,103081.79
2023-02-07T03:55:27.919Z,103082.48
2023-02-07T03:57:57.310Z,103076.42
2023-02-07T04:00:25.860Z,103072.02
2023-02-07T04:02:54.635Z,103072.88
2023-02-07T04:05:23.429Z,103078.45
2023-02-07T04:07:52.176Z,103081.29
2023-02-07T04:10:20.688Z,103074.27
2023-02-07T04:12:49.381Z,103073.83
2023-02-07T04:15:18.016Z,103068.30
2023-02-07T04:17:46.429Z,103066.92
2023-02-07T04:20:14.937Z,103068.98
2023-02-07T04:22:43.383Z,103068.89
2023-02-07T04:25:11.886Z,103065.73
2023-02-07T04:27:40.361Z,103063.17
2023-02-07T04:30:10.315Z,103060.49
2023-02-07T04:32:38.954Z,103058.16
2023-02-07T04:35:09.258Z,103057.70
2023-02-07T04:37:39.147Z,103052.56
2023-02-07T04:40:08.064Z,103049.82
2023-02-07T04:42:36.573Z,103054.23
2023-02-07T04:45:07.242Z,103050.57
2023-02-07T04:47:35.670Z,103046.48
2023-02-07T04:50:04.248Z,103045.91
2023-02-07T04:52:32.754Z,103045.80
2023-02-07T04:55:01.295Z,103043.31
2023-02-07T04:57:29.967Z,103046.04
2023-02-07T04:59:59.146Z,103049.75
2023-02-07T05:02:28.016Z,103046.77
2023-02-07T05:04:57.145Z,103050.47
2023-02-07T05:07:25.605Z,103051.85
2023-02-07T05:09:54.179Z,103052.10
2023-02-07T05:12:22.634Z,103048.36
2023-02-07T05:14:51.452Z,103045.70
2023-02-07T05:17:19.977Z,103049.36
2023-02-07T05:19:48.409Z,103051.83
2023-02-07T05:22:16.838Z,103046.27
2023-02-07T05:24:45.358Z,103044.16
2023-02-07T05:27:13.762Z,103047.75
2023-02-07T05:29:42.173Z,103048.39
2023-02-07T05:32:33.740Z,103056.27
2023-02-07T05:35:02.402Z,103061.08
2023-02-07T05:37:31.041Z,103064.00
2023-02-07T05:39:59.618Z,103064.55
2023-02-07T05:42:28.137Z,103072.87
2023-02-07T05:44:56.657Z,103071.32
2023-02-07T05:47:25.148Z,103070.02
2023-02-07T05:49:53.598Z,103073.48
2023-02-07T05:52:22.046Z,103075.83
2023-02-07T05:54:50.632Z,103079.54
2023-02-07T05:57:19.832Z,103087.65
2023-02-07T05:59:48.725Z,103091.11
2023-02-07T06:02:17.439Z,103095.34
2023-02-07T06:04:45.956Z,103097.09
2023-02-07T06:07:14.901Z,103096.02
2023-02-07T06:09:43.396Z,103093.11
2023-02-07T06:12:11.890Z,103093.00
2023-02-07T06:14:40.482Z,103091.84
2023-02-07T06:17:09.114Z,103088.87
2023-02-07T06:19:37.576Z,103087.38
2023-02-07T06:22:06.042Z,103083.63
2023-02-07T06:24:34.715Z,103094.23
2023-02-07T06:27:03.331Z,103086.31
2023-02-07T06:29:31.773Z,103089.20
2023-02-07T06:32:00.310Z,103088.93
2023-02-07T06:34:28.859Z,103094.16
2023-02-07T06:36:57.641Z,103098.18
2023-02-07T06:39:26.130Z,103101.63
2023-02-07T06:41:54.681Z,103100.87
2023-02-07T06:44:23.130Z,103097.52
2023-02-07T06:46:51.694Z,103098.91
2023-02-07T06:49:20.191Z,103096.46
2023-02-07T06:51:48.743Z,103098.28
2023-02-07T06:54:17.334Z,103108.83
2023-02-07T06:56:45.770Z,103099.66
2023-02-07T06:59:14.427Z,103103.16
2023-02-07T07:01:43.087Z,103109.67
2023-02-07T07:04:11.675Z,103114.65
2023-02-07T07:06:40.160Z,103110.89
2023-02-07T07:09:08.678Z,103110.28
2023-02-07T07:11:43.281Z,103107.86
2023-02-07T07:14:12.577Z,103107.39
2023-02-07T07:16:41.301Z,103100.96
2023-02-07T07:19:09.967Z,103095.63
2023-02-07T07:21:38.448Z,103090.69
2023-02-07T07:24:07.491Z,103085.07
2023-02-07T07:26:48.476Z,103084.44
2023-02-07T07:29:19.411Z,103079.39
2023-02-07T07:31:48.005Z,103072.48
2023-02-07T07:34:17.392Z,103068.03
2023-02-07T07:36:45.927Z,103076.69
2023-02-07T07:39:14.981Z,103071.19
2023-02-07T07:41:43.726Z,103072.91
2023-02-07T07:44:13.341Z,103077.63
2023-02-07T07:46:42.193Z,103080.29
2023-02-07T07:49:10.847Z,103081.76
2023-02-07T07:51:39.539Z,103080.23
2023-02-07T07:54:07.996Z,103080.64
2023-02-07T07:56:36.487Z,103077.77
2023-02-07T07:59:05.996Z,103080.98
2023-02-07T08:01:37.439Z,103079.72
2023-02-07T08:04:06.145Z,103077.98
2023-02-07T08:06:34.708Z,103083.95
2023-02-07T08:09:03.199Z,103082.48
2023-02-07T08:11:31.941Z,103082.81
2023-02-07T08:14:02.085Z,103091.64
2023-02-07T08:16:30.660Z,103095.39
2023-02-07T08:18:59.119Z,103095.49
2023-02-07T08:21:27.738Z,103096.54
2023-02-07T08:23:56.442Z,103097.91
2023-02-07T08:26:25.006Z,103096.81
2023-02-07T08:28:53.468Z,103095.65
2023-02-07T08:32:12.147Z,103100.56
2023-02-07T08:34:40.851Z,103101.99
2023-02-07T08:37:09.781Z,103107.08
2023-02-07T08:39:38.237Z,103107.73
2023-02-07T08:42:08.499Z,103113.11
2023-02-07T08:44:37.620Z,103118.00
2023-02-07T08:47:06.112Z,103116.84
2023-02-07T08:49:34.714Z,103115.96
2023-02-07T08:52:03.242Z,103116.27
2023-02-07T08:54:31.782Z,103118.50
2023-02-07T08:57:00.293Z,103119.34
2023-02-07T08:59:28.850Z,103121.89
2023-02-07T09:01:57.362Z,103117.31
2023-02-07T09:04:27.104Z,103116.55
2023-02-07T09:06:55.636Z,103119.20
2023-02-07T09:09:25.429Z,103122.71
2023-02-07T09:11:53.924Z,103127.20
2023-02-07T09:14:22.401Z,103131.09
2023-02-07T09:16:50.950Z,103132.36
2023-02-07T09:19:20.220Z,103133.90
2023-02-07T09:21:48.770Z,103134.45
2023-02-07T09:24:17.357Z,103138.23
2023-02-07T09:26:45.791Z,103137.06
2023-02-07T09:29:15.490Z,103136.05
2023-02-07T09:31:44.646Z,103139.11
2023-02-07T09:34:13.593Z,103136.71
2023-02-07T09:36:43.731Z,103138.09
2023-02-07T09:39:12.679Z,103141.02
2023-02-07T09:41:44.150Z,103139.10
2023-02-07T09:44:24.197Z,103140.91
2023-02-07T09:46:59.247Z,103140.13
2023-02-07T09:49:53.664Z,103142.87
2023-02-07T09:52:34.524Z,103139.79
2023-02-07T09:55:05.665Z,103139.71
2023-02-07T09:57:48.033Z,103142.24
2023-02-07T10:00:31.966Z,103139.82
2023-02-07T10:03:20.680Z,103143.74
2023-02-07T10:06:01.447Z,103139.25
2023-02-07T10:08:40.936Z,103144.13
2023-02-07T10:11:10.722Z,103145.67
2023-02-07T10:13:39.508Z,103148.59
2023-02-07T10:16:36.255Z,103146.77
2023-02-07T10:19:11.184Z,103142.08
2023-02-07T10:22:21.491Z,103140.47
2023-02-07T10:25:34.125Z,103141.30
2023-02-07T10:28:31.950Z,103143.45
2023-02-07T10:31:05.149Z,103144.39
2023-02-07T10:33:38.624Z,103141.73
2023-02-07T10:36:15.134Z,103140.08
2023-02-07T10:39:08.791Z,103145.20
2023-02-07T10:41:41.643Z,103141.88
2023-02-07T10:44:16.445Z,103140.61
2023-02-07T10:46:50.688Z,103136.86
2023-02-07T10:49:26.535Z,103139.41
2023-02-07T10:52:03.050Z,103136.99
2023-02-07T10:54:51.054Z,103133.41
2023-02-07T10:57:21.916Z,103124.31
2023-02-07T11:00:17.830Z,103120.44
2023-02-07T11:02:52.417Z,103115.63
2023-02-07T11:05:22.198Z,103111.08
2023-02-07T11:08:03.180Z,103102.42
2023-02-07T11:10:37.132Z,103101.77
2023-02-07T11:13:14.220Z,103090.58
2023-02-07T11:16:08.128Z,103090.25
2023-02-07T11:18:45.953Z,103084.02
2023-02-07T11:21:39.301Z,103085.11
2023-02-07T11:24:36.144Z,103076.51
2023-02-07T11:27:16.878Z,103073.15
2023-02-07T11:30:00.802Z,103068.71
2023-02-07T11:32:30.167Z,103072.68
2023-02-07T11:35:09.728Z,103075.42
2023-02-07T11:37:42.317Z,103077.52
2023-02-07T11:40:51.814Z,103076.55
2023-02-07T11:43:23.162Z,103075.65
2023-02-07T11:45:59.561Z,103070.48
2023-02-07T11:48:34.483Z,103065.01
2023-02-07T11:51:05.172Z,103063.02
2023-02-07T11:53:39.722Z,103058.08
2023-02-07T11:56:30.811Z,103048.52
2023-02-07T11:59:00.375Z,103047.35
2023-02-07T12:01:33.054Z,103047.84
2023-02-07T12:04:29.312Z,103049.64
2023-02-07T12:07:06.734Z,103049.72
2023-02-07T12:09:53.047Z,103043.38
2023-02-07T12:12:48.724Z,103042.25
2023-02-07T12:15:27.778Z,103046.52
2023-02-07T12:18:29.767Z,103043.75
2023-02-07T12:21:11.029Z,103039.70
2023-02-07T12:23:43.764Z,103041.78
2023-02-07T12:26:29.183Z,103040.09
2023-02-07T12:29:13.052Z,103034.55
2023-02-07T12:31:51.593Z,103036.98
2023-02-07T12:34:45.911Z,103037.55
2023-02-07T12:37:25.795Z,103040.84
2023-02-07T12:40:11.278Z,103041.37
2023-02-07T12:42:54.705Z,103040.67
2023-02-07T12:45:55.229Z,103040.82
2023-02-07T12:48:42.293Z,103050.55
2023-02-07T12:51:22.921Z,103044.30
2023-02-07T12:54:10.241Z,103046.06
2023-02-07T12:56:54.621Z,103052.23
2023-02-07T13:00:01.549Z,103052.79
2023-02-07T13:02:40.609Z,103047.84
2023-02-07T13:05:46.825Z,103044.77
2023-02-07T13:08:29.265Z,103038.39
2023-02-07T13:11:00.407Z,103034.33
2023-02-07T13:13:33.470Z,103036.64
2023-02-07T13:16:28.008Z,103036.94
2023-02-07T13:19:17.744Z,103038.48
2023-02-07T13:21:57.191Z,103044.82
2023-02-07T13:24:29.671Z,103047.46
2023-02-07T13:27:04.322Z,103043.36
2023-02-07T13:29:35.852Z,103036.98
2023-02-07T13:32:12.930Z,103033.16
2023-02-07T13:34:55.544Z,103024.27
2023-02-07T13:37:43.982Z,103021.91
2023-02-07T13:40:50.232Z,103024.01
2023-02-07T13:44:08.102Z,103024.57
2023-02-07T13:46:56.676Z,103029.25
2023-02-07T13:49:28.292Z,103029.13
2023-02-07T13:52:10.985Z,103027.10
2023-02-07T13:55:01.416Z,103025.04
2023-02-07T13:57:54.331Z,103020.95
2023-02-07T14:00:26.095Z,103013.25
2023-02-07T14:03:03.897Z,103012.20
2023-02-07T14:05:35.799Z,103007.73
2023-02-07T14:08:23.378Z,103005.55
2023-02-07T14:10:56.841Z,103007.56
2023-02-07T14:13:28.157Z,103006.61
2023-02-07T14:15:59.356Z,103003.23
2023-02-07T14:18:51.949Z,102997.29
2023-02-07T14:21:21.291Z,102997.27
2023-02-07T14:23:58.350Z,103002.68
2023-02-07T14:26:43.089Z,103007.54
2023-02-07T14:29:21.219Z,103004.52
2023-02-07T14:32:21.662Z,103008.21
2023-02-07T14:35:05.838Z,103003.51
2023-02-07T14:37:56.665Z,103001.08
2023-02-07T14:40:46.970Z,103011.33
2023-02-07T14:43:18.010Z,103007.98
2023-02-07T14:45:52.328Z,103006.84
2023-02-07T14:48:40.781Z,103008.65
2023-02-07T14:51:15.266Z,103007.85
2023-02-07T14:53:45.465Z,103011.36
2023-02-07T14:56:48.550Z,103009.91
2023-02-07T14:59:29.127Z,103011.87
2023-02-07T15:01:57.590Z,103013.17
2023-02-07T15:04:26.037Z,103008.42
2023-02-07T15:06:54.489Z,103011.10
2023-02-07T15:09:28.161Z,103015.86
2023-02-07T15:12:22.271Z,103015.68
2023-02-07T15:14:59.359Z,103019.09
2023-02-07T15:17:39.324Z,103018.86
2023-02-07T15:20:16.891Z,103020.55
2023-02-07T15:22:53.205Z,103025.43
2023-02-07T15:25:22.539Z,103029.35
2023-02-07T15:28:27.440Z,103026.59
2023-02-07T15:31:03.911Z,103027.01
2023-02-07T15:33:38.706Z,103025.81
2023-02-07T15:36:25.805Z,103031.70
2023-02-07T15:38:55.290Z,103034.26
2023-02-07T15:41:23.765Z,103042.74
2023-02-07T15:44:07.560Z,103044.33
2023-02-07T15:46:46.579Z,103051.80
2023-02-07T15:49:36.396Z,103056.29
2023-02-07T15:52:21.194Z,103061.10
2023-02-07T15:54:53.735Z,103068.48
2023-02-07T15:57:29.309Z,103072.14
2023-02-07T16:00:04.637Z,103075.70
2023-02-07T16:02:48.477Z,103078.84
2023-02-07T16:05:28.473Z,103078.93
2023-02-07T16:07:58.338Z,103076.16
2023-02-07T16:10:30.075Z,103075.50
2023-02-07T16:13:07.401Z,103078.30
2023-02-07T16:15:39.204Z,103077.83
2023-02-07T16:18:39.243Z,103079.63
2023-02-07T16:21:14.413Z,103074.78
2023-02-07T16:23:43.408Z,103074.20
2023-02-07T16:26:13.255Z,103075.20
2023-02-07T16:28:42.158Z,103075.58
2023-02-07T16:31:10.815Z,103077.40
2023-02-07T16:33:40.033Z,103078.11
2023-02-07T16:36:18.602Z,103082.88
2023-02-07T16:38:47.046Z,103089.91
2023-02-07T16:41:31.686Z,103092.06
2023-02-07T16:44:03.071Z,103100.42
2023-02-07T16:46:32.117Z,103101.15
2023-02-07T16:49:01.387Z,103101.11
2023-02-07T16:51:29.836Z,103103.38
2023-02-07T16:53:58.311Z,103105.32
2023-02-07T16:56:28.173Z,103108.44
2023-02-07T16:58:56.720Z,103113.69
2023-02-07T17:01:25.164Z,103112.55
2023-02-07T17:03:53.675Z,103115.73
2023-02-07T17:06:24.463Z,103111.39
2023-02-07T17:08:54.242Z,103114.19
2023-02-07T17:11:28.150Z,103113.61
2023-02-07T17:13:58.332Z,103115.08
2023-02-07T17:16:27.900Z,103112.22
2023-02-07T17:18:56.381Z,103110.21
2023-02-07T17:21:24.919Z,103109.33
2023-02-07T17:23:53.390Z,103108.48
2023-02-07T17:26:25.631Z,103110.89
2023-02-07T17:28:55.259Z,103106.31
2023-02-07T17:31:24.992Z,103106.73
2023-02-07T17:33:53.712Z,103108.65
2023-02-07T17:36:22.236Z,103110.88
2023-02-07T17:38:50.672Z,103107.18
2023-02-07T17:41:20.368Z,103107.80
2023-02-07T17:43:48.787Z,103107.44
2023-02-07T17:46:23.081Z,103109.48
2023-02-07T17:48:53.489Z,103109.67
2023-02-07T17:51:24.436Z,103112.98
2023-02-07T17:53:54.418Z,103115.92
2023-02-07T17:56:29.701Z,103119.05
2023-02-07T17:59:03.591Z,103121.49
2023-02-07T18:01:33.775Z,103122.86
2023-02-07T18:04:02.926Z,103120.15
2023-02-07T18:06:32.076Z,103120.58
2023-02-07T18:09:00.574Z,103121.70
2023-02-07T18:11:29.177Z,103122.73
2023-02-07T18:13:57.629Z,103121.95
2023-02-07T18:16:27.304Z,103122.02
2023-02-07T18:18:58.130Z,103119.50
2023-02-07T18:21:28.052Z,103115.53
2023-02-07T18:23:57.466Z,103116.69
2023-02-07T18:26:25.975Z,103116.44
2023-02-07T18:28:54.576Z,103117.60
2023-02-07T18:31:24.910Z,103115.13
2023-02-07T18:33:54.277Z,103113.81
2023-02-07T18:36:26.916Z,103118.61
2023-02-07T18:38:57.722Z,103119.77
2023-02-07T18:41:27.055Z,103124.98
2023-02-07T18:43:55.537Z,103123.13
2023-02-07T18:46:24.098Z,103129.98
2023-02-07T18:48:57.081Z,103128.67
2023-02-07T18:51:26.112Z,103129.72
2023-02-07T18:53:55.236Z,103129.41
2023-02-07T18:56:25.940Z,103131.36
2023-02-07T18:58:56.971Z,103138.48
2023-02-07T19:01:30.620Z,103137.03
2023-02-07T19:04:01.789Z,103138.38
2023-02-07T19:06:34.229Z,103139.16
2023-02-07T19:09:03.363Z,103134.66
2023-02-07T19:11:32.498Z,103133.59
2023-02-07T19:14:00.928Z,103140.65
2023-02-07T19:16:30.226Z,103141.10
2023-02-07T19:18:59.408Z,103141.09
2023-02-07T19:21:27.949Z,103141.06
2023-02-07T19:23:58.205Z,103141.58
2023-02-07T19:26:26.933Z,103143.38
2023-02-07T19:28:57.392Z,103146.08
2023-02-07T19:31:29.399Z,103149.83
2023-02-07T19:33:59.207Z,103148.84
2023-02-07T19:36:28.457Z,103150.34
2023-02-07T19:38:57.255Z,103147.89
2023-02-07T19:41:27.709Z,103146.70
2023-02-07T19:43:56.503Z,103142.39
2023-02-07T19:46:25.837Z,103143.80
2023-02-07T19:48:55.044Z,103150.84
2023-02-07T19:51:29.213Z,103153.63
2023-02-07T19:53:58.375Z,103156.88
2023-02-07T19:56:32.481Z,103156.56
2023-02-07T19:59:04.086Z,103157.54
2023-02-07T20:01:34.668Z,103157.23
2023-02-07T20:04:03.247Z,103158.16
2023-02-07T20:06:33.323Z,103158.35
2023-02-07T20:09:04.295Z,103156.27
2023-02-07T20:11:33.806Z,103158.41
2023-02-07T20:14:03.958Z,103157.29
2023-02-07T20:16:37.595Z,103161.71
2023-02-07T20:19:07.942Z,103162.79
2023-02-07T20:21:37.736Z,103164.19
2023-02-07T20:24:07.060Z,103161.08
2023-02-07T20:26:39.874Z,103164.84
2023-02-07T20:29:12.574Z,103165.75
2023-02-07T20:31:42.369Z,103168.07
2023-02-07T20:34:11.888Z,103169.72
2023-02-07T20:36:43.924Z,103167.96
2023-02-07T20:39:18.948Z,103177.48
2023-02-07T20:41:49.788Z,103178.20
2023-02-07T20:44:21.161Z,103179.36
2023-02-07T20:46:51.338Z,103179.77
2023-02-07T20:49:24.978Z,103181.01
2023-02-07T20:51:56.474Z,103186.98
2023-02-07T20:54:27.737Z,103189.20
2023-02-07T20:56:57.700Z,103192.02
2023-02-07T20:59:30.039Z,103193.00
2023-02-07T21:01:59.709Z,103190.05
2023-02-07T21:04:30.008Z,103189.91
2023-02-07T21:06:58.708Z,103185.09
2023-02-07T21:09:28.004Z,103185.31
2023-02-07T21:11:56.555Z,103180.54
2023-02-07T21:14:29.949Z,103183.40
2023-02-07T21:17:01.730Z,103185.80
2023-02-07T21:19:30.554Z,103188.92
2023-02-07T21:21:59.087Z,103188.42
2023-02-07T21:24:27.929Z,103191.31
2023-02-07T21:26:57.436Z,103195.91
2023-02-07T21:29:28.255Z,103194.83
2023-02-07T21:31:56.794Z,103192.74
2023-02-07T21:34:25.780Z,103195.21
2023-02-07T21:36:54.704Z,103191.45
2023-02-07T21:39:24.587Z,103188.30
2023-02-07T21:41:53.452Z,103184.95
2023-02-07T21:44:22.593Z,103192.68
2023-02-07T21:46:52.489Z,103187.98
2023-02-07T21:49:21.207Z,103183.92
2023-02-07T21:51:53.622Z,103186.03
2023-02-07T21:54:22.154Z,103187.89
2023-02-07T21:56:51.504Z,103194.52
2023-02-07T21:59:22.651Z,103192.86
2023-02-07T22:01:51.605Z,103192.61
2023-02-07T22:04:20.559Z,103196.05
2023-02-07T22:06:49.692Z,103202.23
2023-02-07T22:09:20.376Z,103205.45
2023-02-07T22:11:49.343Z,103204.46
2023-02-07T22:14:18.527Z,103203.53
2023-02-07T22:16:54.085Z,103207.45
2023-02-07T22:19:23.479Z,103212.04
2023-02-07T22:21:52.109Z,103212.29
2023-02-07T22:24:21.517Z,103210.27
2023-02-07T22:26:49.951Z,103214.08
2023-02-07T22:29:18.467Z,103222.98
2023-02-07T22:31:47.053Z,103224.90
2023-02-07T22:34:16.145Z,103225.05
2023-02-07T22:36:45.753Z,103232.89
2023-02-07T22:39:16.331Z,103233.53
2023-02-07T22:41:45.723Z,103233.42
2023-02-07T22:44:14.591Z,103234.15
2023-02-07T22:46:43.951Z,103233.38
2023-02-07T22:49:12.609Z,103238.59
2023-02-07T22:51:41.093Z,103234.08
2023-02-07T22:54:15.522Z,103234.55
2023-02-07T22:56:45.775Z,103227.41
2023-02-07T22:59:14.734Z,103231.55
2023-02-07T23:01:44.581Z,103227.48
2023-02-07T23:04:17.802Z,103225.44
2023-02-07T23:06:46.967Z,103228.88
2023-02-07T23:09:16.293Z,103232.61
2023-02-07T23:11:45.156Z,103234.06
2023-02-07T23:14:13.917Z,103232.11
2023-02-07T23:16:43.478Z,103234.54
2023-02-07T23:19:17.942Z,103233.80
2023-02-07T23:21:46.513Z,103230.98
2023-02-07T23:24:15.073Z,103227.71
2023-02-07T23:26:44.836Z,103227.17
2023-02-07T23:29:13.302Z,103228.41
2023-02-07T23:31:41.791Z,103226.77
2023-02-07T23:34:10.423Z,103226.79
2023-02-07T23:36:39.502Z,103232.85
2023-02-07T23:39:08.502Z,103228.86
2023-02-07T23:41:37.336Z,103228.30
2023-02-07T23:44:05.872Z,103226.98
2023-02-07T23:46:35.281Z,103232.45
2023-02-07T23:49:04.261Z,103235.17
2023-02-07T23:51:33.257Z,103238.30
2023-02-07T23:54:02.432Z,103237.71
2023-02-07T23:56:31.002Z,103240.52
2023-02-07T23:58:59.473Z,103245.42
